気象予報士の航空気象 2012年04月

*All archives   *Admin

2012.04.04 (Wed)

猛烈に発達した低気圧 爆弾低気圧ではない

爆弾低気圧


3日から4日にかけて、横断していきました。


気象庁としては、「猛烈に発達した」とか、「急速に発達した」低気圧が正式な名称。


マスメディアは「爆弾低気圧」というのを使いたがります。


「ゲリラ豪雨」同様、個人の意見として、好きではない言葉のひとつです。


んで、HNDのMETAR時系列 整理せず。


RJTT 041430Z 22017KT CAVOK 11/M03 Q1007 NOSIG RMK A2976
RJTT 041427Z 22017KT CAVOK 11/M02 Q1007 RMK A2976
RJTT 041400Z 24007KT CAVOK 11/M02 Q1008 BECMG TL1500 22012KT
RJTT 041330Z 25008KT CAVOK 11/M03 Q1008 NOSIG RMK A2977 MOD TURB BTN 10000 AND 8000FT 5NM SW ONJUKU BY B777 AT 1307 AND BTN 10000 AND 4000FT FM AMI TO CREAM BY MD90 AT 1315
RJTT 041300Z VRB02KT CAVOK 11/M01 Q1008 BECMG TL1400 20010KT RMK A2977
RJTT 041230Z 10007KT CAVOK 12/M00 Q1008 BECMG TL1330 20010KT RMK A2978 MOD TURB 11000FT OVER CURRY BY B738 AT 1200
RJTT 041200Z 07005KT CAVOK 12/M01 Q1008 BECMG FM1230 TL1330 20010KT RMK A2978
RJTT 041130Z VRB02KT CAVOK 12/M03 Q1008 NOSIG RMK A2977 MOD TURB BTN 8000 AND 10000FT FM PLUTO TO KAIJI BY B763 AT 1105
RJTT 041100Z 04004KT 350V080 CAVOK 12/M03 Q1008 NOSIG RMK A2977
RJTT 041030Z 11004KT 040V150 9999 FEW050 12/00 Q1007 NOSIG RMK 1SC050 A2976 MOD TURB BTN 11000 AND 6000FT 5NM S AMI BY B737 AT 1004 AND BTN 5000 AND 7000FT OVER KAIJI BY B737 AT 1024
RJTT 041000Z 09004KT 9999 FEW030 13/M02 Q1007 BECMG TL1100 36009KT RMK 1CU030 A2974 MOD TURB BTN 7000 AND 11000FT 10NM E HANEDA BY B773 AT 0952
RJTT 040930Z 09006KT 9999 FEW030 13/M03 Q1007 BECMG TL1100 36009KT RMK 1CU030 A2974 MOD TURB 12000FT 5NM S ADDUM BY B767 AT 0908 AND BTN 11000 AND 12000FT OVER DIIVA BY B737 AT 0912 AND 12000FT 8NM SW ADDUM BY A320 AT 0927
RJTT 040900Z 07007KT 9999 FEW030 13/M03 Q1006 BECMG 36009KT RMK 1CU030 A2972 MOD TURB BTN 9000 AND 14000FT OVER TAURA BY B763 AT 0846
RJTT 040830Z 08007KT 9999 FEW060 13/M01 Q1006 BECMG 04008KT RMK 1SC060 A2971 MOD TURB BTN 11000 AND 8000FT 10NM S AMI BY B767 AT 0816
RJTT 040800Z 06007KT 9999 FEW060 13/M02 Q1005 BECMG TL0900 09008KT RMK 1SC060 A2970 MOD TURB BTN 11000 AND 10000FT 10NM S AMI BY B738 AT 0735 AND BTN 6500 AND 8000FT 7NM NE HANEDA BY B737 AT 0737
RJTT 040730Z 10012KT 9999 FEW060 13/M00 Q1005 NOSIG RMK 1SC060 A2968 MOD TURB BTN 10000 AND 13500FT 10NM NE HANEDA BY B767 AT 0701
RJTT 040700Z 09012KT 9999 FEW060 14/M02 Q1004 NOSIG RMK 1SC060 A2966 MOD TURB BTN 5000 AND 8000FT 7NM E HANEDA BY B772 AT 0632 AND BTN 10000 AND 13000FT KAMAT BY B767 AT 0657
RJTT 040630Z 07015KT 9999 FEW050 SCT090 14/M01 Q1004 NOSIG RMK 1SC050 3AC090 A2965 MOD TURB BTN 12000 AND 13000FT 7NM SW HANEDA BY B737 AT 0600 AND 11000FT 8NM S AMI BY B763 AT 0614
RJTT 040600Z 06010KT 9999 FEW050 14/00 Q1003 BECMG TL0630 09008KT RMK 1SC050 A2964 MOD TURB BTN 10000 AND 7000FT 15NM S AMI BY B738 AT 0545
RJTT 040530Z 07008KT 9999 FEW060 15/M05 Q1003 NOSIG RMK 1SC060 A2962 MOD TURB 8000FT 10NM NE DENNY BY B738 AT 0512
RJTT 040500Z 06011KT 030V100 9999 FEW060 13/02 Q1002 BECMG TL0600 22018KT RMK 1SC060 A2961 MOD TURB 7700FT KAIJI BY B763 AT 0430
RJTT 040430Z 08007KT 030V130 9999 FEW060 14/02 Q1002 BECMG TL0500 22018KT RMK 1SC060 A2960 MOD TURB BTN 11000 AND 8000FT STONE TO 10NM S STONE BY B772 AT 0425
RJTT 040400Z 10014KT 9999 FEW060 13/01 Q1002 BECMG TL0500 22018KT RMK 2SC060 A2960
RJTT 040330Z 10012KT 9999 FEW060 12/M00 Q1002 BECMG TL0400 22018KT RMK 2SC060 A2960 MOD TURB BTN 9000 AND 11000FT KAIJI BY B738 AT 0307 AND 7000FT 7NM S HANEDA VOR BY B772 AT 0325
RJTT 040300Z 12010KT 9999 FEW060 13/M01 Q1002 BECMG TL0400 22018KT RMK 2SC060 A2961 MOD TURB 11000FT 10NM S SEKIYADO VOR BY B738 AT 0230
RJTT 040230Z 11010KT 9999 FEW060 12/M02 Q1002 BECMG TL0400 18010KT RMK 2SC060 A2961 MOD TURB BTN 8000 AND 10000FT 7NM S HANEDA VOR BY B737 AT 0215
RJTT 040200Z 08011KT 9999 FEW060 12/M03 Q1002 NOSIG RMK 1SC060 A2960
RJTT 040130Z 05007KT 010V070 9999 FEW060 12/M02 Q1002 BECMG TL0300 12008KT RMK 1SC060 A2961 MOD TURB BTN 3000 AND 8000FT FM 5NM SE TO 6NM S HANEDA BY B787 AT 0102 AND BY B738 AT 0116
RJTT 040100Z 03011KT 9999 FEW060 10/M03 Q1002 NOSIG RMK 1SC060 A2960 MOD TURB BTN 6000 AND 7000FT 5NM S HANEDA BY B737 AT 0043
RJTT 040030Z 04012KT 9999 FEW060 11/M03 Q1002 NOSIG RMK 1SC060 A2959
RJTT 040000Z 04009KT 9999 FEW060 11/M02 Q1001 NOSIG RMK 1SC060 A2958
RJTT 032330Z 01010KT 9999 FEW030 10/M02 Q1001 NOSIG RMK 1CU030 A2957
RJTT 032320Z 01010KT 9999 FEW030 10/M03 Q1001 RMK 1CU030 A2957
RJTT 032308Z 31009KT 250V340 9999 FEW030 11/M02 Q1001 RMK 1CU030 A2956
RJTT 032300Z 25010KT 200V280 9999 FEW030 11/M03 Q1001 NOSIG RMK 1CU030 A2956
RJTT 032230Z 24012KT 9999 FEW030 11/M02 Q1000 NOSIG RMK 1CU030 A2954
RJTT 032200Z 23017KT 9999 FEW030 10/M01 Q0999 BECMG TL2230 25018KT RMK 1CU030 A2952
RJTT 032130Z 22018KT 9999 FEW030 09/M01 Q0999 BECMG TL2230 25018KT RMK 1CU030 A2950
RJTT 032100Z 23017KT 9999 FEW030 08/M01 Q0998 BECMG TL2130 25018KT
RJTT 032030Z 25014KT 9999 FEW030 08/M01 Q0998 NOSIG RMK 1CU030 A2948 P/RR
RJTT 032000Z 24019KT 9999 FEW030 08/M01 Q0997 NOSIG RMK 1CU030 A2945 P/RR
RJTT 031930Z 24022KT 9999 FEW030 09/M01 Q0995 TEMPO 23024G35KT RMK 1CU030 A2940
RJTT 031903Z 23022G32KT 9999 FEW030 09/M01 Q0995 RMK 1CU030 A2939 P/RR
RJTT 031900Z 23022KT 9999 FEW030 09/M02 Q0995 TEMPO 23024G35KT RMK 1CU030 A2939 P/RR
RJTT 031830Z 23023KT 9999 FEW030 10/M03 Q0994 NOSIG RMK 1CU030 A2936
RJTT 031803Z 24020G30KT 9999 FEW030 10/M03 Q0994 RMK 1CU030 A2935
RJTT 031800Z 24021KT 9999 FEW030 10/M03 Q0994 NOSIG RMK 1CU030 A2935
RJTT 031730Z 24016KT 9999 FEW030 10/M02 Q0993 NOSIG RMK 1CU030 A2934
RJTT 031712Z 24015G26KT 9999 FEW030 11/M02 Q0993 RMK 1CU030 A2933
RJTT 031700Z 23014KT 9999 FEW030 11/M02 Q0993 NOSIG RMK 1CU030 A2933
RJTT 031630Z 24013KT 9999 FEW030 11/M01 Q0993 NOSIG RMK 1CU030 A2933
RJTT 031600Z 25010KT 220V280 9999 FEW030 11/M00 Q0992 NOSIG RMK 1CU030 A2930
RJTT 031530Z 27015KT 9999 FEW030 12/02 Q0991 NOSIG RMK 1CU030 A2929 P/RR
RJTT 031500Z 24014KT 9999 FEW030 12/04 Q0990 BECMG TL1600 26018KT
RJTT 031435Z 23022G32KT 9999 FEW025 12/04 Q0989 RMK 1CU025 A2922 P/RR
RJTT 031430Z 23025KT 9999 FEW025 12/04 Q0989 TEMPO 23025G35KT RMK 1CU025 A2922 P/RR
RJTT 031400Z 22029G39KT 9999 FEW025 SCT110 13/05 Q0987 NOSIG RMK 1CU025 3AC110 A2917 P/RR
RJTT 031330Z 21027G40KT 9999 FEW025 13/04 Q0986 NOSIG RMK 1CU025 A2913
RJTT 031310Z 22027G38KT 9999 FEW025 14/04 Q0986 RMK 1CU025 A2913
RJTT 031300Z 22028KT 9999 FEW025 14/05 Q0986 TEMPO 22028G40KT RMK 1CU025 A2913
RJTT 031230Z 22032G44KT 9999 FEW025 15/07 Q0985 NOSIG RMK 1CU025 A2911 MOD TURB BTN 12000 AND 8000FT 10NM NW STONE BY B737 AT 1221
RJTT 031200Z 21037G58KT 9999 FEW025 16/10 Q0985 NOSIG RMK 1CU025 A2909
RJTT 031130Z 21032G47KT 9999 -SHRA FEW008 SCT020 16/14 Q0985 NOSIG RMK 1ST008 4CU020 A2909
RJTT 031121Z 20030G44KT 9999 -SHRA FEW005 SCT015 BKN070 16/14 Q0985 RMK 1ST005 4CU015 6AC070 A2909
RJTT 031108Z 20035G52KT 7000 R34L/1500VP1800U R22/1300VP1800N R16L/0700VP1800U R23/1000VP1800U SHRA FEW005 SCT010 BKN015 16/15 Q0985 RMK 1ST005 3ST010 5CU015 A2910
RJTT 031104Z 20036G49KT 5000 R34L/1400VP1800U R22/1000VP1800U R16L/0700VP1800U R23/1000VP1800D +SHRA FEW005 BKN010 BKN015 16/15 Q0985 RMK 1ST005 5ST010 6CU015 A2910
RJTT 031100Z 20035G49KT 1500 R34L/1100VP1800U R22/1000VP1800D R16L/0700V1500D R23/1200VP1800D +SHRA FEW005 BKN010 BKN015 15/14 Q0985 BECMG FM1200 8000 NSW FEW008 SCT010 BKN015
RJTT 031049Z 22024G47KT 3000 R34L/1000VP1800U R22/1400VP1800D R16L/0650VP1800U R23/P1800N +SHRA FEW009 BKN010 BKN017 15/14 Q0986 RMK 1ST009 5ST010 6CU017 A2912 RI++
RJTT 031046Z 22026KT 5000 R34L/0800VP1800U R22/1200VP1800U R16L/0400VP1800U R23/P1800N SHRA FEW009 BKN010 BKN017 15/14 Q0986 RMK 1ST009 5ST010 6CU017 A2912
RJTT 031045Z 21036G59KT 5000 R34L/0800VP1800U R22/1200VP1800U R16L/0400VP1800U R23/P1800N SHRA FEW009 BKN010 BKN017 15/14 Q0986 RMK 1ST009 5ST010 6CU017 A2912 P/FR
RJTT 031044Z 21038G59KT 5000 R34L/0800VP1800U R22/0800VP1800U R16L/0400VP1800U R23/P1800N SHRA FEW009 BKN010 BKN017 15/14 Q0985 RMK 1ST009 5ST010 6CU017 A2911 P/FR
RJTT 031042Z 21039G59KT 1500 R34L/0800VP1800D R22/0800VP1800U R16L/0400V1500D R23/P1800N +SHRA FEW009 BKN010 BKN017 15/14 Q0985 RMK 1ST009 5ST010 6CU017 A2910 P/FR
RJTT 031040Z 20042G59KT 1500 R34L/0800VP1800D R22/0750V1500U R16L/0400V1400D R23/P1800N +SHRA FEW009 BKN013 BKN017 14/13 Q0985 RMK 1ST009 5ST013 6CU017 A2910 P/FR RI++
RJTT 031037Z 21044G59KT 1500 R34L/0800VP1800U R22/0750VP1800D R16L/0650VP1800D R23/P1800N +SHRA FEW009 BKN010 BKN017 15/14 Q0986 RMK 1ST009 5ST010 6CU017 A2912 P/FR RI++
RJTT 031034Z 19034G50KT 2000 R34L/0800VP1800U R22/0750VP1800D R16L/1200VP1800D R23/1500VP1800N +SHRA FEW009 BKN013 BKN017 15/14 Q0986 RMK 1ST009 5ST013 6CU017 A2913 RI++
RJTT 031031Z 19036G50KT 2000 R34L/0800VP1800D R22/0800VP1800D R16L/1200VP1800D R23/1100VP1800U +SHRA FEW009 BKN013 BKN017 15/14 Q0986 RMK 1ST009 5ST013 6CU017 A2914 RI++
RJTT 031030Z 19036G50KT 2000 R34L/0800VP1800D R22/1000VP1800D R16L/1200VP1800D R23/1100VP1800U +SHRA FEW009 BKN013 BKN017 15/14 Q0986 BECMG FM1200 8000 NSW RMK 1ST009 5ST013 6CU017 A2913 RI++
RJTT 031028Z 18038G50KT 2000 R34L/0800VP1800D R22/1400VP1800U R16L/1600VP1800N R23/1100VP1800U +SHRA FEW009 BKN013 BKN017 15/14 Q0986 RMK 1ST009 5ST013 6CU017 A2913 RI++
RJTT 031024Z 18038G57KT 2500 R34L/1100VP1800D R22/1400VP1800D R16L/P1800N R23/1100VP1800D SHRA FEW009 BKN013 BKN017 15/14 Q0986 RMK 1ST009 5ST013 6CU017 A2914
RJTT 031018Z 18041G57KT 4000 SHRA FEW009 BKN018 BKN025 15/13 Q0987 RMK 1ST009 5CU018 6CU025 A2915
RJTT 031007Z 18040G51KT 2000 R34L/1700D R22/P1800N R16L/P1800N R23/1300VP1800D SHRA FEW013 BKN018 BKN025 14/13 Q0987 RMK 2ST013 5CU018 6CU025 A2916
RJTT 031004Z 18042G52KT 4500 R34L/1500VP1800D R22/P1800N R16L/P1800N R23/1300VP1800D SHRA FEW013 BKN018 BKN025 14/13 Q0987 RMK 2ST013 5CU018 6CU025 A2915
RJTT 031000Z 17053G68KT 4500 SHRA FEW013 BKN018 BKN025 15/13 Q0986 NOSIG RMK 2ST013 5CU018 6CU025 A2914 P/FR
RJTT 030936Z 18045G60KT 4000 SHRA FEW013 BKN018 BKN025 15/13 Q0987 RMK 1ST013 5CU018 6CU025 A2916 P/FR
RJTT 030930Z 18046G64KT 4000 -SHRA FEW013 BKN018 BKN025 15/13 Q0987 TEMPO 1500 SHRA BKN009 BKN015 RMK 1ST013 5CU018 6CU025 A2917 P/FR
RJTT 030925Z 17052G64KT 3000 SHRA FEW013 BKN018 BKN025 15/13 Q0987 RMK 1ST013 5CU018 6CU025 A2917 P/FR
RJTT 030924Z 17050KT 3000 SHRA FEW013 BKN018 BKN025 15/13 Q0987 RMK 1ST013 5CU018 6CU025 A2917 P/FR
RJTT 030907Z 18040G60KT 2500 SHRA FEW013 BKN018 BKN025 15/13 Q0989 RMK 2ST013 5CU018 6CU025 A2920 P/FR
RJTT 030900Z 18039G49KT 3000 SHRA FEW013 BKN018 BKN025 15/13 Q0989 TEMPO 1500 SHRA BKN009 BKN015 RMK 2ST013 5CU018 6CU025 A2921 P/FR
RJTT 030850Z 17042G55KT 2000 R34L/P1800N R22/P1800N R16L/P1800N R23/1200V1800D SHRA FEW013 BKN018 BKN025 14/13 Q0989 RMK 1ST013 5CU018 6CU025 A2922 P/FR
RJTT 030841Z 17045G55KT 3000 R34L/P1800N R22/P1800N R16L/P1800N R23/1800D SHRA FEW015 BKN022 BKN035 14/12 Q0990 RMK 1CU015 5CU022 6CU035 A2924 P/FR
RJTT 030830Z 17047G60KT 4500 SHRA FEW015 BKN022 BKN035 15/12 Q0990 TEMPO 1500 SHRA BKN009 BKN015 RMK 1CU015 5CU022 6CU035 A2925 P/FR
RJTT 030811Z 17044G54KT 4500 SHRA FEW015 BKN022 BKN035 15/12 Q0991 RMK 1CU015 5CU022 6CU035 A2928 P/FR
RJTT 030810Z 17045KT 4500 SHRA FEW015 BKN022 BKN035 15/12 Q0991 RMK 1CU015 5CU022 6CU035 A2929 P/FR
RJTT 030800Z 17033G46KT 8000 -SHRA FEW015 BKN022 BKN035 15/12 Q0992 TEMPO FM0900 18045G56KT 1500 SHRA BKN009 BKN015 RMK 1CU015 5CU022 6CU035 A2930 P/FR
RJTT 030730Z 17029G39KT 8000 -SHRA FEW015 SCT020 BKN030 15/12 Q0995 TEMPO TL0900 1500 +SHRA BKN009 BKN015 RMK 1CU015 3CU020 5CU030 A2939 P/FR
RJTT 030713Z 18029G41KT 5000 SHRA FEW015 BKN030 BKN060 14/12 Q0996 RMK 2CU015 6CU030 7SC060 A2941 P/FR
RJTT 030700Z 18028G38KT 7000 -SHRA FEW015 BKN040 BKN060 14/12 Q0997 TEMPO 1500 +SHRA BKN009 BKN015 RMK 2CU015 6SC040 7SC060 A2945 P/FR
RJTT 030651Z 19025KT 8000 -SHRA FEW015 SCT020 BKN050 15/13 Q0998 RMK 1CU015 3CU020 6SC050 A2948 P/FR
RJTT 030644Z 19024G35KT 6000 SHRA FEW015 SCT020 BKN040 14/12 Q0998 RMK 2CU015 3CU020 5SC040 A2950 P/FR
RJTT 030631Z 19027G37KT 4500 SHRA FEW008 SCT015 BKN030 14/12 Q0999 RMK 1ST008 3CU015 5CU030 A2952 P/FR
RJTT 030630Z 19028KT 4500 SHRA FEW008 SCT015 BKN030 14/12 Q0999 TEMPO 20035G45KT FEW009 BKN014 RMK 1ST008 3CU015 5CU030 A2952 P/FR
RJTT 030610Z 19024G34KT 4000 R34L/1200VP1800D R22/P1800N R16L/P1800N R23/1500VP1800D SHRA FEW015 SCT020 BKN035 15/12 Q1000 RMK 2CU015 4CU020 6CU035 A2955 P/FR
RJTT 030609Z 19025KT 5000 SHRA FEW015 SCT020 BKN060 15/12 Q1000 RMK 1CU015 3CU020 7SC060 A2955 P/FR
RJTT 030600Z 19027G39KT 7000 -SHRA FEW015 SCT020 BKN060 15/12 Q1001 WS R22 TEMPO 4000 SHRA FEW009 BKN014 RMK 1CU015 3CU020 7SC060 A2956 P/FR
RJTT 030538Z 18025G35KT 7000 -SHRA FEW015 SCT020 BKN030 15/12 Q1001 RMK 1CU015 3CU020 5SC030 A2959 P/FR
RJTT 030530Z 18026KT 7000 -SHRA FEW015 BKN020 BKN030 15/12 Q1002 TEMPO 20035G45KT 4000 SHRA FEW009 BKN014 RMK 2CU015 5CU020 6SC030 A2960 P/FR
RJTT 030500Z 18029G39KT 9999 -SHRA FEW015 SCT020 BKN060 15/12 Q1003 TEMPO 4000 SHRA FEW009 BKN014 RMK 1CU015 4CU020 7SC060 A2964 P/FR
RJTT 030442Z 17022G32KT 9999 -SHRA FEW025 BKN030 BKN045 15/11 Q1004 RMK 2CU025 6CU030 7SC045 A2966 P/FR
RJTT 030430Z 18020KT 9999 FEW025 BKN030 BKN035 16/11 Q1004 BECMG TL0500 18034G45KT RMK 1CU025 6CU030 7SC035 A2967 P/FR
RJTT 030424Z 18021G31KT 9999 -SHRA FEW025 BKN030 BKN035 16/11 Q1005 RMK 1CU025 6CU030 7SC035 A2968 P/FR
RJTT 030400Z 18018KT 9999 FEW030 BKN035 BKN045 15/10 Q1006 BECMG TL0500 18034G45KT RMK 2CU030 6SC035 7SC045 A2971 LGT TO MOD TURB BTN 7000 AND 11000FT 15NM S NARITA VOR BY B777 AT 0341 P/FR
RJTT 030330Z 18015G25KT 9999 VCSH FEW030 BKN035 15/09 Q1007 BECMG TL0500 18034G45KT RMK 1CU030 7SC035 A2976
RJTT 030304Z 19019G30KT 9999 FEW035 BKN040 BKN060 15/09 Q1008 RMK 1CU035 5SC040 7SC060 A2978
RJTT 030300Z 18019KT 9999 FEW035 BKN040 BKN060 15/08 Q1008 BECMG 18034G45KT RMK 1CU035 5SC040 7SC060 A2978 P/FR


ブログランキングに参加しています。
にほんブログ村 環境ブログ 天気・気象学へ
にほんブログ村
応援クリックをおねがします。


以下、アフィリエイトサイトです。





スポンサーサイト
23:28  |  気象・天気  |  TB(0)  |  CM(0)  |  EDIT  |  Top↑
 | BLOGTOP |